Shaftsbury, Vermont
Current Conditions -  °F | °C
As of 8:54 PM on Monday 22 Dec 2014 (Local Time) from KDDH Reporting Station
Overcast Overcast  
Wind Chill: -1°   Ceiling: 4400
Heat Index:   Visibility: 10mi
Dew Point: -1°   Wind: 10mph
Humidity: 76%   Direction: 120°ESE
Pressure: 30.23"   Gusts: NA
Location:  43.01°N, 73.19°W
Report Text: KDDH 230154Z AUTO 12009KT 10SM OVC044 03/M01 A3023 RMK AO2 SLP245 T00331006
Loading
Personal Weather Stations






























Interactive Weather Map New forecast layout! Learn more

10-Day Weather Forecast

Advertisements
Track Severe Weather on mobile